Stout, Ohio
Current Conditions -  °F | °C
As of 2:15 PM on Saturday 25 Oct 2014 (Local Time) from KFGX Reporting Station
Overcast Overcast  
Wind Chill: 65°   Ceiling: 1900
Heat Index: 65°   Visibility: 10mi
Dew Point: 55°   Wind: 10mph
Humidity: 68%   Direction: 230°SW
Pressure: 29.97"   Gusts: NA
Location:  38.66°N, 83.38°W
Report Text: KFGX 251815Z AUTO 23009KT 10SM OVC019 19/13 A2997 RMK AO2 T01860126
Loading
Personal Weather Stations






























Interactive Weather Map
Tropical Storm Tracking
New forecast layout! Learn more

10-Day Weather Forecast

Advertisements
Track Severe Weather on mobile